Time;durP1;ratioP1;P1;durP2;ratioP2;P2;SDS_P1;SDS_P2;PMS_P1;PMS_P2;Temp;Humidity;BMP_temperature;BMP_pressure;BME280_temperature;BME280_humidity;BME280_pressure;Samples;Min_cycle;Max_cycle;Signal;HPM_P1;HPM_P2
2023/09/10 00:00:35;;;;;;;41.63;37.83;;;19.80;99.90;;;;;;5156180;27;20046;-73
2023/09/10 00:03:01;;;;;;;42.37;38.67;;;19.70;99.90;;;;;;5137638;27;20051;-73
2023/09/10 00:05:30;;;;;;;41.27;37.47;;;19.80;99.90;;;;;;5156604;27;20043;-73
2023/09/10 00:08:01;;;;;;;41.23;37.20;;;19.80;99.90;;;;;;5139068;27;20509;-73
2023/09/10 00:10:27;;;;;;;40.60;36.87;;;19.70;99.90;;;;;;5120198;27;20130;-73
2023/09/10 00:12:52;;;;;;;40.70;36.70;;;19.70;99.90;;;;;;5155983;27;20053;-72
2023/09/10 00:15:18;;;;;;;39.93;36.33;;;19.70;99.90;;;;;;5120867;27;20050;-72
2023/09/10 00:17:44;;;;;;;40.67;36.87;;;19.70;99.90;;;;;;5137625;27;20042;-72
2023/09/10 00:20:10;;;;;;;40.30;36.50;;;19.70;99.90;;;;;;5120514;27;20447;-73
2023/09/10 00:22:37;;;;;;;39.13;35.53;;;19.70;99.90;;;;;;5120555;27;20048;-73
2023/09/10 00:25:04;;;;;;;40.93;37.13;;;19.60;99.90;;;;;;5120541;27;20045;-72
2023/09/10 00:27:30;;;;;;;39.87;36.17;;;19.60;99.90;;;;;;5137542;27;20054;-73
2023/09/10 00:29:56;;;;;;;38.67;35.10;;;19.60;99.90;;;;;;5103030;27;20059;-73
2023/09/10 00:32:22;;;;;;;39.10;35.43;;;19.60;99.90;;;;;;5155842;27;20047;-73
2023/09/10 00:34:47;;;;;;;39.77;35.97;;;19.50;99.90;;;;;;5137206;27;20046;-73
2023/09/10 00:37:16;;;;;;;38.93;35.23;;;19.60;99.90;;;;;;5155784;27;20438;-73
2023/09/10 00:39:45;;;;;;;40.77;36.77;;;19.60;99.90;;;;;;5137455;27;20095;-73
2023/09/10 00:42:11;;;;;;;38.20;34.67;;;19.60;99.90;;;;;;5120053;27;20420;-73
2023/09/10 00:44:37;;;;;;;37.77;34.27;;;19.50;99.90;;;;;;5085877;27;20043;-73
2023/09/10 00:47:09;;;;;;;38.30;34.63;;;19.50;99.90;;;;;;5104291;27;20093;-73
2023/09/10 00:49:37;;;;;;;38.73;35.20;;;19.50;99.90;;;;;;5119851;27;20512;-76
2023/09/10 00:52:04;;;;;;;35.27;31.97;;;19.50;99.90;;;;;;5137308;27;20058;-73
2023/09/10 00:54:36;;;;;;;37.30;33.60;;;19.50;99.90;;;;;;5137024;27;20125;-73
2023/09/10 00:57:03;;;;;;;41.13;37.13;;;19.50;99.90;;;;;;5136278;27;20066;-73
2023/09/10 00:59:30;;;;;;;37.53;33.93;;;19.50;99.90;;;;;;5119865;27;20038;-73
2023/09/10 01:01:57;;;;;;;37.97;34.37;;;19.50;99.90;;;;;;5119366;27;20043;-73
2023/09/10 01:04:23;;;;;;;37.87;34.43;;;19.50;99.90;;;;;;5136713;27;20390;-73
2023/09/10 01:06:52;;;;;;;37.17;33.77;;;19.40;99.90;;;;;;5154982;27;20042;-73
2023/09/10 01:09:18;;;;;;;36.23;32.83;;;19.40;99.90;;;;;;5137115;27;20398;-73
2023/09/10 01:12:01;;;;;;;36.60;33.00;;;19.40;99.90;;;;;;5136640;27;20448;-73
2023/09/10 01:14:41;;;;;;;35.57;32.37;;;19.40;99.90;;;;;;5119511;27;20050;-73
2023/09/10 01:17:22;;;;;;;37.83;34.13;;;19.30;99.90;;;;;;5136564;27;20080;-73
2023/09/10 01:20:36;;;;;;;36.73;33.33;;;19.30;99.90;;;;;;5119221;27;20042;-73
2023/09/10 01:23:07;;;;;;;37.77;34.27;;;19.30;99.90;;;;;;5016562;28;20049;-73
2023/09/10 01:25:33;;;;;;;37.33;33.83;;;19.30;99.90;;;;;;5017935;28;20049;-73
2023/09/10 01:28:04;;;;;;;37.97;34.37;;;19.30;99.90;;;;;;5085735;27;20063;-73
2023/09/10 01:30:33;;;;;;;36.53;33.13;;;19.20;99.90;;;;;;5136880;27;20147;-73
2023/09/10 01:33:16;;;;;;;36.27;33.07;;;19.20;99.90;;;;;;5136193;27;20043;-73
2023/09/10 01:35:45;;;;;;;37.40;33.93;;;19.20;99.90;;;;;;5118806;27;20054;-73
2023/09/10 01:38:30;;;;;;;37.93;34.30;;;19.20;99.90;;;;;;5136348;27;20042;-73
2023/09/10 01:41:04;;;;;;;37.10;33.60;;;19.20;99.90;;;;;;5154345;27;20423;-73
2023/09/10 01:43:32;;;;;;;36.60;33.27;;;19.10;99.90;;;;;;5136158;27;20513;-73
2023/09/10 01:45:57;;;;;;;38.20;34.33;;;19.10;99.90;;;;;;5132071;27;20053;-73
2023/09/10 01:48:26;;;;;;;37.33;33.73;;;19.10;99.90;;;;;;5133638;27;20055;-73
2023/09/10 01:50:53;;;;;;;36.63;33.20;;;19.00;99.90;;;;;;5098849;27;20406;-73
2023/09/10 01:53:18;;;;;;;35.80;32.40;;;19.00;99.90;;;;;;5133064;27;20043;-72
2023/09/10 01:55:45;;;;;;;36.13;32.77;;;19.00;99.90;;;;;;5132669;27;20108;-73
2023/09/10 01:58:13;;;;;;;36.17;32.70;;;19.00;99.90;;;;;;5132710;27;20053;-73
2023/09/10 02:00:39;;;;;;;35.37;32.07;;;19.00;99.90;;;;;;5115335;27;20047;-73
2023/09/10 02:03:05;;;;;;;34.67;31.47;;;19.00;99.90;;;;;;5115352;28;20051;-73
2023/09/10 02:05:31;;;;;;;35.07;31.83;;;18.90;99.90;;;;;;5114888;28;20057;-73
2023/09/10 02:07:57;;;;;;;36.63;33.33;;;18.90;99.90;;;;;;5132082;28;20055;-73
2023/09/10 02:10:23;;;;;;;35.63;32.20;;;18.90;99.90;;;;;;5132181;28;20054;-73
2023/09/10 02:12:49;;;;;;;34.27;31.07;;;18.90;99.90;;;;;;5132041;28;20050;-73
2023/09/10 02:15:17;;;;;;;34.97;31.43;;;18.80;99.90;;;;;;5132551;28;20135;-73
2023/09/10 02:17:43;;;;;;;36.50;33.10;;;18.80;99.90;;;;;;5132618;28;20051;-73
2023/09/10 02:20:09;;;;;;;35.07;31.60;;;18.80;99.90;;;;;;5114633;28;20048;-73
2023/09/10 02:22:39;;;;;;;35.33;32.03;;;18.80;99.90;;;;;;5115502;28;20133;-73
2023/09/10 02:25:07;;;;;;;35.43;31.87;;;18.80;99.90;;;;;;5114763;28;20047;-73
2023/09/10 02:27:33;;;;;;;35.23;31.97;;;18.80;99.90;;;;;;5132160;28;20070;-73
2023/09/10 02:29:59;;;;;;;36.90;33.33;;;18.80;99.90;;;;;;5132151;28;20126;-73
2023/09/10 02:32:25;;;;;;;37.73;34.10;;;18.80;99.90;;;;;;5097547;27;20592;-73
2023/09/10 02:34:53;;;;;;;35.90;32.50;;;18.80;99.90;;;;;;5101676;27;20130;-73
2023/09/10 02:37:19;;;;;;;36.03;32.43;;;18.80;99.90;;;;;;5136200;27;20053;-73
2023/09/10 02:39:45;;;;;;;34.43;31.13;;;18.70;99.90;;;;;;5118961;27;20126;-72
2023/09/10 02:42:11;;;;;;;34.37;31.03;;;18.70;99.90;;;;;;5118983;27;20086;-73
2023/09/10 02:44:36;;;;;;;34.10;30.90;;;18.60;99.90;;;;;;5136123;27;20149;-73
2023/09/10 02:47:02;;;;;;;34.80;31.37;;;18.60;99.90;;;;;;5084467;27;20125;-73
2023/09/10 02:49:28;;;;;;;37.17;33.30;;;18.60;99.90;;;;;;5135957;27;20043;-73
2023/09/10 02:51:54;;;;;;;35.67;32.37;;;18.70;99.90;;;;;;5135945;27;20050;-74
2023/09/10 02:54:20;;;;;;;36.27;32.80;;;18.60;99.90;;;;;;5135986;27;20042;-73
2023/09/10 02:56:47;;;;;;;34.97;31.67;;;18.60;99.90;;;;;;5102082;27;20399;-73
2023/09/10 02:59:19;;;;;;;37.00;33.60;;;18.60;99.90;;;;;;5101633;27;20050;-73
2023/09/10 03:01:45;;;;;;;32.70;29.53;;;18.60;99.90;;;;;;5118787;27;20058;-73
2023/09/10 03:04:11;;;;;;;34.90;31.60;;;18.60;99.90;;;;;;5118432;27;20154;-73
2023/09/10 03:06:37;;;;;;;35.13;31.63;;;18.60;99.90;;;;;;5101922;27;20086;-73
2023/09/10 03:09:03;;;;;;;34.50;31.20;;;18.60;99.90;;;;;;5118382;27;20047;-73
2023/09/10 03:11:37;;;;;;;33.70;30.30;;;18.50;99.90;;;;;;5119614;27;20093;-74
2023/09/10 03:14:03;;;;;;;35.17;31.97;;;18.50;99.90;;;;;;5118070;27;20501;-74
2023/09/10 03:16:29;;;;;;;35.87;32.60;;;18.50;99.90;;;;;;5101857;27;20146;-74
2023/09/10 03:18:54;;;;;;;36.17;32.50;;;18.50;99.90;;;;;;5118164;27;20051;-74
2023/09/10 03:21:21;;;;;;;33.93;30.77;;;18.40;99.90;;;;;;5118297;27;20069;-74
2023/09/10 03:23:47;;;;;;;35.80;32.43;;;18.40;99.90;;;;;;5118460;27;20051;-73
2023/09/10 03:26:13;;;;;;;35.40;32.20;;;18.40;99.90;;;;;;5101183;27;20058;-73
2023/09/10 03:28:40;;;;;;;35.10;31.63;;;18.40;99.90;;;;;;5101542;27;20055;-73
2023/09/10 03:31:06;;;;;;;33.93;30.67;;;18.30;99.90;;;;;;5117787;27;20043;-73
2023/09/10 03:33:32;;;;;;;33.10;29.80;;;18.30;99.90;;;;;;5135437;27;20042;-73
2023/09/10 03:35:57;;;;;;;33.83;30.63;;;18.30;99.90;;;;;;5100776;27;20523;-74
2023/09/10 03:38:24;;;;;;;34.07;30.77;;;18.30;99.90;;;;;;5134785;27;20159;-73
2023/09/10 03:40:49;;;;;;;32.87;29.77;;;18.30;99.90;;;;;;5134927;27;20043;-73
2023/09/10 03:43:16;;;;;;;33.93;30.83;;;18.30;99.90;;;;;;5117855;27;20043;-73
2023/09/10 03:45:42;;;;;;;33.03;29.87;;;18.30;99.90;;;;;;5135345;27;20093;-73
2023/09/10 03:48:08;;;;;;;33.50;30.30;;;18.30;99.90;;;;;;5120873;27;20082;-73
2023/09/10 03:50:34;;;;;;;33.60;30.40;;;18.30;99.90;;;;;;5104482;27;20046;-73
2023/09/10 03:53:00;;;;;;;32.80;29.50;;;18.20;99.90;;;;;;5120751;27;20043;-73
2023/09/10 03:55:26;;;;;;;32.43;29.27;;;18.20;99.90;;;;;;5121595;27;20478;-74
2023/09/10 03:57:52;;;;;;;32.73;29.53;;;18.20;99.90;;;;;;5138044;27;20042;-74
2023/09/10 04:00:19;;;;;;;33.80;30.60;;;18.20;99.90;;;;;;5137597;27;20042;-74
2023/09/10 04:02:46;;;;;;;32.60;29.23;;;18.20;99.90;;;;;;5121389;27;20046;-74
2023/09/10 04:05:13;;;;;;;33.63;30.43;;;18.20;99.90;;;;;;5120819;27;20054;-73
2023/09/10 04:07:39;;;;;;;33.43;30.23;;;18.20;99.90;;;;;;5121060;27;20051;-73
2023/09/10 04:10:09;;;;;;;33.40;30.20;;;18.20;99.90;;;;;;5120652;27;20047;-73
2023/09/10 04:12:35;;;;;;;33.80;30.20;;;18.20;99.90;;;;;;5137975;27;20051;-72
2023/09/10 04:15:02;;;;;;;33.57;30.47;;;18.20;99.90;;;;;;5120519;27;20058;-74
2023/09/10 04:17:29;;;;;;;32.10;29.10;;;18.20;99.90;;;;;;5137976;27;20039;-73
2023/09/10 04:19:55;;;;;;;33.83;30.57;;;18.20;99.90;;;;;;5120827;27;20103;-73
2023/09/10 04:22:21;;;;;;;33.27;29.93;;;18.10;99.90;;;;;;5103543;27;20060;-73
2023/09/10 04:24:47;;;;;;;32.43;29.43;;;18.10;99.90;;;;;;5120670;27;20117;-73
2023/09/10 04:27:13;;;;;;;32.17;29.03;;;18.10;99.90;;;;;;5103306;27;20129;-73
2023/09/10 04:29:38;;;;;;;34.23;30.90;;;18.10;99.90;;;;;;5120825;27;20055;-73
2023/09/10 04:32:04;;;;;;;33.83;30.40;;;18.00;99.90;;;;;;5103192;27;20047;-74
2023/09/10 04:34:30;;;;;;;33.30;30.10;;;18.10;99.90;;;;;;5120574;27;20058;-74
2023/09/10 04:36:56;;;;;;;32.80;29.60;;;18.10;99.90;;;;;;5120397;27;20046;-73
2023/09/10 04:39:22;;;;;;;32.07;29.03;;;18.10;99.90;;;;;;5137031;27;20078;-73
2023/09/10 04:41:47;;;;;;;31.23;28.13;;;18.20;99.90;;;;;;5103519;27;20482;-73
2023/09/10 04:44:13;;;;;;;31.57;28.57;;;18.10;99.90;;;;;;5119702;27;20103;-74
2023/09/10 04:46:39;;;;;;;31.30;28.30;;;18.10;99.90;;;;;;5155264;27;20055;-73
2023/09/10 04:49:05;;;;;;;32.50;29.43;;;18.10;99.90;;;;;;5119870;27;20137;-74
2023/09/10 04:51:30;;;;;;;31.70;28.70;;;18.10;99.90;;;;;;5137522;27;20500;-73
2023/09/10 04:53:56;;;;;;;33.47;30.13;;;18.10;99.90;;;;;;5120131;27;20064;-73
2023/09/10 04:56:22;;;;;;;33.47;30.13;;;18.00;99.90;;;;;;5136330;27;20528;-73
2023/09/10 04:58:48;;;;;;;32.97;29.57;;;18.10;99.90;;;;;;5136984;27;20122;-73
2023/09/10 05:01:14;;;;;;;32.83;29.67;;;18.00;99.90;;;;;;5119336;27;20035;-73
2023/09/10 05:03:41;;;;;;;33.97;30.73;;;18.00;99.90;;;;;;5119774;27;20046;-73
2023/09/10 05:06:08;;;;;;;32.90;29.63;;;18.00;99.90;;;;;;5119772;27;20139;-75
2023/09/10 05:08:34;;;;;;;33.17;29.90;;;18.00;99.90;;;;;;5119705;27;20545;-74
2023/09/10 05:11:00;;;;;;;31.43;28.43;;;18.00;99.90;;;;;;5155180;27;20042;-73
2023/09/10 05:13:26;;;;;;;34.40;30.97;;;18.00;99.90;;;;;;5119369;27;20458;-73
2023/09/10 05:15:57;;;;;;;33.87;30.53;;;18.00;99.90;;;;;;5102469;27;20560;-73
2023/09/10 05:18:26;;;;;;;34.70;31.07;;;18.00;99.90;;;;;;5119965;27;20042;-73
2023/09/10 05:20:53;;;;;;;34.80;31.20;;;18.00;99.90;;;;;;5119305;27;20424;-73
2023/09/10 05:23:23;;;;;;;35.63;32.10;;;18.00;99.90;;;;;;5154732;27;20049;-73
2023/09/10 05:25:49;;;;;;;35.13;31.83;;;18.00;99.90;;;;;;5119477;27;20486;-73
2023/09/10 05:28:16;;;;;;;37.30;33.67;;;18.00;99.90;;;;;;5136385;27;20057;-73
2023/09/10 05:30:41;;;;;;;35.47;31.90;;;18.10;99.90;;;;;;5136229;27;20075;-73
2023/09/10 05:33:07;;;;;;;36.77;33.17;;;18.00;99.90;;;;;;5136367;27;20042;-73
2023/09/10 05:35:33;;;;;;;35.13;31.73;;;18.10;99.90;;;;;;5118706;27;20379;-73
2023/09/10 05:37:59;;;;;;;36.37;32.87;;;18.10;99.90;;;;;;5153880;27;20058;-73
2023/09/10 05:40:25;;;;;;;35.60;32.23;;;18.20;99.90;;;;;;5136023;27;20045;-73
2023/09/10 05:42:51;;;;;;;35.67;32.10;;;18.30;99.90;;;;;;5085306;27;20047;-72
2023/09/10 05:45:20;;;;;;;35.33;31.70;;;18.30;99.90;;;;;;5136561;27;20054;-73
2023/09/10 05:47:46;;;;;;;36.10;32.60;;;18.40;99.90;;;;;;5118923;27;20134;-72
2023/09/10 05:50:12;;;;;;;38.47;34.77;;;18.40;99.90;;;;;;5118831;27;20118;-74
2023/09/10 05:52:37;;;;;;;38.20;34.50;;;18.40;99.90;;;;;;5102261;27;20539;-73
2023/09/10 05:55:03;;;;;;;35.67;32.27;;;18.50;99.90;;;;;;5102378;27;20051;-73
2023/09/10 05:57:29;;;;;;;38.07;34.20;;;18.50;99.90;;;;;;5135647;27;20046;-73
2023/09/10 05:59:55;;;;;;;37.13;33.57;;;18.60;99.90;;;;;;5119023;27;20042;-73
2023/09/10 06:02:21;;;;;;;37.33;33.77;;;18.60;99.90;;;;;;5118408;27;20494;-73
2023/09/10 06:04:47;;;;;;;38.63;34.77;;;18.70;99.90;;;;;;5136154;27;20047;-73
2023/09/10 06:07:12;;;;;;;39.10;35.40;;;18.80;99.90;;;;;;5119169;27;20050;-73
2023/09/10 06:09:38;;;;;;;37.30;33.50;;;18.90;99.90;;;;;;5107950;27;20505;-74
2023/09/10 06:12:04;;;;;;;38.80;35.07;;;19.10;99.90;;;;;;5125672;27;20046;-73
2023/09/10 06:14:30;;;;;;;36.60;32.93;;;19.30;99.90;;;;;;5125464;27;20061;-73
2023/09/10 06:16:57;;;;;;;35.53;32.23;;;19.70;99.90;;;;;;5125812;27;20046;-73
2023/09/10 06:19:22;;;;;;;34.00;30.70;;;20.00;99.90;;;;;;5124757;27;20077;-73
2023/09/10 06:21:48;;;;;;;32.70;29.60;;;20.20;99.90;;;;;;5125630;27;20439;-73
2023/09/10 06:24:15;;;;;;;34.70;31.30;;;20.30;99.90;;;;;;5108782;27;20435;-73
2023/09/10 06:26:41;;;;;;;34.03;30.73;;;20.30;99.90;;;;;;5142570;27;20173;-73
2023/09/10 06:29:07;;;;;;;35.77;32.23;;;20.40;99.90;;;;;;5142830;27;20082;-73
2023/09/10 06:31:35;;;;;;;33.17;30.17;;;20.40;99.90;;;;;;5142438;27;20521;-74
2023/09/10 06:34:01;;;;;;;35.17;31.47;;;20.60;99.90;;;;;;5108664;27;20050;-73
2023/09/10 06:36:29;;;;;;;32.43;29.27;;;21.10;99.90;;;;;;5125370;27;20102;-73
2023/09/10 06:39:00;;;;;;;31.03;28.07;;;21.70;99.90;;;;;;5126705;27;20186;-73
2023/09/10 06:41:27;;;;;;;32.50;29.13;;;22.40;99.90;;;;;;5142001;27;20038;-73
2023/09/10 06:43:53;;;;;;;30.17;27.27;;;23.00;99.90;;;;;;5108532;27;20053;-73
2023/09/10 06:46:18;;;;;;;30.67;27.63;;;23.50;99.90;;;;;;5124532;27;20054;-73
2023/09/10 06:48:44;;;;;;;31.07;28.20;;;24.00;99.90;;;;;;5142883;27;20134;-71
2023/09/10 06:51:10;;;;;;;29.37;26.30;;;24.30;99.90;;;;;;5142458;27;20094;-71
2023/09/10 06:53:35;;;;;;;29.73;26.73;;;24.80;99.90;;;;;;5160657;27;20043;-71
2023/09/10 06:56:01;;;;;;;29.33;26.53;;;25.10;99.90;;;;;;5160941;27;20583;-71
2023/09/10 06:58:27;;;;;;;27.67;25.10;;;25.50;99.90;;;;;;5124994;27;20522;-72
2023/09/10 07:00:53;;;;;;;27.33;24.73;;;26.00;99.90;;;;;;5091286;27;20077;-73
2023/09/10 07:03:19;;;;;;;27.13;24.47;;;26.40;99.90;;;;;;5142458;27;20042;-72
2023/09/10 07:05:45;;;;;;;25.47;23.03;;;26.70;99.90;;;;;;5160743;27;20060;-72
2023/09/10 07:08:11;;;;;;;26.00;23.60;;;27.10;99.90;;;;;;5142291;27;20047;-72
2023/09/10 07:10:38;;;;;;;26.63;24.13;;;27.60;99.90;;;;;;5160477;27;20042;-72
2023/09/10 07:13:06;;;;;;;24.30;21.90;;;28.10;99.90;;;;;;5142315;27;20046;-72
2023/09/10 07:15:34;;;;;;;24.77;22.57;;;28.40;99.90;;;;;;5160429;27;20465;-72
2023/09/10 07:18:00;;;;;;;23.27;20.97;;;28.80;99.90;;;;;;5124969;27;20047;-72
2023/09/10 07:20:27;;;;;;;24.40;22.00;;;29.30;99.90;;;;;;5157897;27;20466;-73
2023/09/10 07:22:53;;;;;;;24.25;22.05;;;29.60;98.70;;;;;;5139128;27;20054;-73
2023/09/10 07:25:19;;;;;;;27.98;21.80;;;29.90;96.50;;;;;;5138827;27;20116;-72
2023/09/10 07:27:45;;;;;;;23.85;21.55;;;30.10;95.00;;;;;;5121583;27;20047;-73
2023/09/10 07:30:11;;;;;;;23.50;21.15;;;30.50;93.60;;;;;;5121641;27;20434;-72
2023/09/10 07:32:37;;;;;;;22.30;20.20;;;30.80;91.40;;;;;;5121591;27;20042;-72
2023/09/10 07:35:03;;;;;;;22.83;20.63;;;30.80;89.60;;;;;;5104738;27;20047;-74
2023/09/10 07:37:35;;;;;;;20.85;19.05;;;30.80;87.10;;;;;;5138630;27;20050;-76
2023/09/10 07:40:14;;;;;;;22.00;20.10;;;30.80;85.90;;;;;;5123486;27;20130;-75
2023/09/10 07:42:52;;;;;;;20.67;18.65;;;30.90;86.20;;;;;;5123767;27;20414;-76
2023/09/10 07:45:18;;;;;;;22.58;20.48;;;30.60;86.60;;;;;;5121447;27;20068;-77
2023/09/10 07:47:48;;;;;;;22.15;19.95;;;29.90;89.80;;;;;;5121748;27;20062;-78
2023/09/10 07:50:14;;;;;;;22.83;20.80;;;29.20;92.70;;;;;;5121488;27;20137;-76
2023/09/10 07:52:40;;;;;;;20.67;18.60;;;28.60;95.50;;;;;;5120753;27;20050;-77
2023/09/10 07:55:06;;;;;;;22.52;20.42;;;28.00;97.90;;;;;;5138435;27;20129;-73
2023/09/10 07:57:32;;;;;;;22.08;19.95;;;27.70;99.60;;;;;;5138252;27;20043;-77
2023/09/10 08:00:01;;;;;;;20.92;18.98;;;27.40;99.90;;;;;;5156724;27;20039;-79
2023/09/10 08:02:28;;;;;;;22.17;20.10;;;27.00;99.90;;;;;;5135591;27;20069;-76
2023/09/10 08:04:54;;;;;;;21.52;19.55;;;26.90;99.90;;;;;;5138182;27;20043;-77
2023/09/10 08:07:20;;;;;;;23.27;20.90;;;26.70;99.90;;;;;;5104290;27;20045;-78
2023/09/10 08:09:45;;;;;;;20.65;18.75;;;26.40;99.90;;;;;;5156201;27;20039;-75
2023/09/10 08:12:11;;;;;;;22.45;20.35;;;26.20;99.90;;;;;;5138271;27;20425;-75
2023/09/10 08:14:38;;;;;;;21.45;19.45;;;26.00;99.90;;;;;;5137811;27;20057;-75
2023/09/10 08:17:04;;;;;;;20.63;18.52;;;25.90;99.90;;;;;;5137876;27;20134;-75
2023/09/10 08:19:30;;;;;;;22.33;17.90;;;25.80;99.90;;;;;;5137298;27;20074;-81
2023/09/10 08:21:56;;;;;;;20.27;18.02;;;25.70;99.90;;;;;;5121099;27;20398;-79
2023/09/10 08:24:22;;;;;;;19.58;17.77;;;25.80;99.90;;;;;;5103529;27;20461;-77
2023/09/10 08:26:48;;;;;;;21.70;19.60;;;25.80;99.90;;;;;;5137634;27;20089;-81
2023/09/10 08:29:15;;;;;;;19.97;18.07;;;25.80;99.90;;;;;;5120671;27;20125;-77
2023/09/10 08:31:40;;;;;;;20.07;17.97;;;25.80;99.90;;;;;;5103130;27;20058;-77
2023/09/10 08:34:06;;;;;;;17.77;15.97;;;25.80;99.90;;;;;;5120467;27;20056;-77
2023/09/10 08:36:32;;;;;;;18.37;16.57;;;25.80;99.90;;;;;;5137310;27;20054;-77
2023/09/10 08:38:57;;;;;;;18.47;16.53;;;25.70;99.90;;;;;;5137958;27;20074;-77
2023/09/10 08:41:35;;;;;;;18.80;16.87;;;25.70;99.90;;;;;;5120102;27;20045;-75
2023/09/10 08:44:02;;;;;;;19.57;16.93;;;25.70;99.90;;;;;;5156244;27;20068;-76
2023/09/10 08:46:31;;;;;;;17.63;15.93;;;25.70;99.90;;;;;;5155494;27;20108;-75
2023/09/10 08:48:58;;;;;;;16.83;15.23;;;25.70;99.90;;;;;;5153208;27;20046;-76
2023/09/10 08:51:27;;;;;;;15.87;14.27;;;25.70;99.90;;;;;;5137417;27;20546;-76
2023/09/10 08:54:02;;;;;;;15.27;13.67;;;25.70;99.90;;;;;;5123043;27;20093;-77
2023/09/10 08:56:29;;;;;;;15.10;13.30;;;25.70;99.90;;;;;;5136989;27;20557;-77
2023/09/10 08:58:56;;;;;;;14.43;12.67;;;25.70;99.90;;;;;;5119903;27;20046;-75
2023/09/10 09:01:23;;;;;;;14.37;12.57;;;25.60;99.90;;;;;;5137064;27;20039;-77
2023/09/10 09:03:49;;;;;;;13.97;12.43;;;25.60;99.90;;;;;;5119793;27;20047;-72
2023/09/10 09:06:16;;;;;;;14.03;12.57;;;25.60;99.90;;;;;;5137148;27;20043;-75
2023/09/10 09:08:48;;;;;;;13.00;11.70;;;25.60;99.90;;;;;;5119306;27;20060;-76
2023/09/10 09:11:17;;;;;;;14.57;13.07;;;25.70;99.90;;;;;;5119757;27;20065;-76
2023/09/10 09:13:47;;;;;;;15.33;12.20;;;25.70;99.90;;;;;;5135740;27;20122;-76
2023/09/10 09:16:21;;;;;;;14.93;12.33;;;25.70;99.90;;;;;;5137730;27;20176;-76
2023/09/10 09:18:48;;;;;;;14.50;10.90;;;25.70;99.90;;;;;;5135098;27;20551;-76
2023/09/10 09:21:33;;;;;;;12.10;10.87;;;25.70;99.90;;;;;;5134988;27;20061;-76
2023/09/10 09:24:06;;;;;;;15.57;12.87;;;25.80;99.90;;;;;;5116600;27;20099;-76
2023/09/10 09:26:41;;;;;;;13.03;10.80;;;25.80;99.90;;;;;;5134133;27;20054;-75
2023/09/10 09:29:08;;;;;;;14.90;12.30;;;25.80;99.90;;;;;;5099126;27;20127;-74
2023/09/10 09:31:34;;;;;;;13.73;11.53;;;25.80;99.90;;;;;;5134205;27;20043;-73
2023/09/10 09:34:00;;;;;;;13.27;11.87;;;25.80;99.90;;;;;;5098884;27;20057;-74
2023/09/10 09:36:28;;;;;;;14.23;10.47;;;25.80;99.90;;;;;;5133909;27;20384;-77
2023/09/10 09:38:57;;;;;;;13.70;10.63;;;25.70;99.90;;;;;;5116154;27;20045;-77
2023/09/10 09:41:28;;;;;;;12.20;10.90;;;25.70;99.90;;;;;;5115776;27;20494;-77
2023/09/10 09:43:58;;;;;;;15.82;10.30;;;25.80;99.90;;;;;;5133215;27;20430;-77
2023/09/10 09:46:31;;;;;;;13.00;10.00;;;25.80;99.90;;;;;;5133115;27;20126;-77
2023/09/10 09:49:06;;;;;;;13.20;10.20;;;25.80;99.90;;;;;;5125457;27;20048;-77
2023/09/10 09:51:44;;;;;;;14.93;10.13;;;25.90;99.90;;;;;;5132453;27;20051;-77
2023/09/10 09:54:16;;;;;;;13.30;11.53;;;25.90;99.90;;;;;;5115782;27;20479;-77
2023/09/10 09:56:46;;;;;;;13.77;10.63;;;26.00;99.90;;;;;;5115329;28;20067;-78
2023/09/10 09:59:15;;;;;;;12.97;10.73;;;26.00;99.90;;;;;;5129424;27;20062;-77
2023/09/10 10:01:41;;;;;;;14.10;11.20;;;26.10;99.90;;;;;;5114873;27;20125;-80
2023/09/10 10:04:18;;;;;;;15.13;11.27;;;26.10;99.90;;;;;;5115384;28;20055;-77
2023/09/10 10:06:47;;;;;;;13.67;11.30;;;26.10;99.90;;;;;;5132337;28;20047;-78
2023/09/10 10:09:13;;;;;;;12.17;10.53;;;26.10;99.90;;;;;;5098424;28;20104;-74
2023/09/10 10:11:40;;;;;;;12.33;10.43;;;26.10;99.90;;;;;;5098662;28;20054;-77
2023/09/10 10:14:09;;;;;;;16.63;9.80;;;26.10;99.90;;;;;;5132871;27;20127;-77
2023/09/10 10:16:46;;;;;;;16.77;11.50;;;26.10;99.90;;;;;;5130917;28;20051;-79
2023/09/10 10:19:12;;;;;;;14.07;10.73;;;26.20;99.90;;;;;;5110804;28;20552;-76
2023/09/10 10:21:41;;;;;;;13.83;10.70;;;26.20;99.90;;;;;;5094101;28;20048;-73
2023/09/10 10:24:08;;;;;;;17.23;13.10;;;26.20;99.90;;;;;;5110369;28;20082;-76
2023/09/10 10:26:34;;;;;;;18.63;12.67;;;26.20;99.90;;;;;;5093749;28;20104;-75
2023/09/10 10:29:00;;;;;;;14.83;10.87;;;26.20;99.90;;;;;;5110231;28;20126;-76
2023/09/10 10:31:31;;;;;;;14.30;10.20;;;26.20;99.90;;;;;;5093690;28;20066;-76
2023/09/10 10:34:11;;;;;;;17.17;10.50;;;26.30;99.90;;;;;;5110400;28;20051;-76
2023/09/10 10:36:57;;;;;;;14.77;11.37;;;26.30;99.90;;;;;;5093645;28;20055;-76
2023/09/10 10:39:37;;;;;;;13.47;10.20;;;26.30;99.90;;;;;;5093811;28;20059;-75
2023/09/10 10:42:09;;;;;;;15.53;10.60;;;26.30;99.90;;;;;;5093747;28;20055;-75
2023/09/10 10:44:36;;;;;;;16.00;10.27;;;26.40;99.90;;;;;;5076821;28;20129;-75
2023/09/10 10:47:17;;;;;;;13.47;10.83;;;26.40;99.90;;;;;;5093317;28;20226;-76
2023/09/10 10:49:55;;;;;;;12.00;10.07;;;26.40;99.90;;;;;;5103150;28;20491;-75
2023/09/10 10:52:31;;;;;;;12.30;10.10;;;26.40;99.90;;;;;;5132741;28;20129;-77
2023/09/10 10:54:57;;;;;;;17.03;9.33;;;26.40;99.90;;;;;;5116420;27;20084;-76
2023/09/10 10:57:25;;;;;;;12.13;9.67;;;26.40;99.90;;;;;;5118758;27;20047;-74
2023/09/10 10:59:51;;;;;;;12.50;9.80;;;26.40;99.90;;;;;;5136832;27;20085;-76
2023/09/10 11:02:24;;;;;;;12.97;8.50;;;26.40;99.90;;;;;;5118885;27;20047;-75
2023/09/10 11:05:02;;;;;;;17.87;9.80;;;26.50;99.90;;;;;;5102792;27;20078;-70
2023/09/10 11:07:29;;;;;;;13.83;8.20;;;26.50;99.90;;;;;;5135794;27;20050;-71
2023/09/10 11:10:24;;;;;;;16.90;9.87;;;26.50;99.90;;;;;;5136730;27;20054;-72
2023/09/10 11:13:19;;;;;;;12.52;8.88;;;26.50;99.90;;;;;;5126191;27;20093;-79
2023/09/10 11:16:03;;;;;;;10.83;8.57;;;26.60;99.90;;;;;;5123221;27;20495;-78
2023/09/10 11:18:35;;;;;;;14.40;8.88;;;26.50;99.90;;;;;;5136850;27;20043;-76
2023/09/10 11:21:05;;;;;;;11.43;8.30;;;26.60;99.90;;;;;;5136476;27;20047;-79
2023/09/10 11:23:32;;;;;;;14.73;10.03;;;26.60;99.90;;;;;;5135876;27;20051;-79
2023/09/10 11:26:13;;;;;;;10.67;8.20;;;26.70;99.90;;;;;;5135333;27;20108;-76
2023/09/10 11:28:58;;;;;;;12.97;8.70;;;26.70;99.90;;;;;;5135567;27;20139;-77
2023/09/10 11:31:45;;;;;;;14.27;8.40;;;26.70;99.90;;;;;;5136942;27;20038;-76
2023/09/10 11:34:17;;;;;;;16.43;8.20;;;26.70;99.90;;;;;;5135086;27;20046;-78
2023/09/10 11:36:54;;;;;;;12.83;8.83;;;26.70;99.90;;;;;;5135408;27;20063;-75
2023/09/10 11:39:20;;;;;;;15.43;7.70;;;26.70;99.90;;;;;;5136628;27;20062;-76
2023/09/10 11:41:48;;;;;;;11.80;7.53;;;26.80;99.90;;;;;;5117886;27;20046;-76
2023/09/10 11:44:14;;;;;;;14.60;8.17;;;26.80;99.90;;;;;;5134732;27;20047;-76
2023/09/10 11:46:40;;;;;;;14.20;7.70;;;26.80;99.90;;;;;;5136013;27;20464;-75
2023/09/10 11:49:06;;;;;;;11.90;7.50;;;26.80;99.90;;;;;;5147315;27;20051;-76
2023/09/10 11:51:32;;;;;;;13.07;7.13;;;26.90;99.90;;;;;;5156913;27;20088;-73
2023/09/10 11:53:59;;;;;;;12.37;8.87;;;26.90;99.90;;;;;;5138013;27;20099;-77
2023/09/10 11:56:27;;;;;;;11.63;8.07;;;26.90;99.90;;;;;;5156872;27;20052;-73
2023/09/10 11:58:53;;;;;;;11.43;7.93;;;26.90;99.90;;;;;;5137583;27;20050;-73
2023/09/10 12:01:20;;;;;;;13.63;8.37;;;26.90;99.90;;;;;;5120957;27;20078;-74
2023/09/10 12:03:46;;;;;;;19.97;8.10;;;26.90;99.90;;;;;;5121328;27;20437;-74
2023/09/10 12:06:12;;;;;;;17.30;7.63;;;26.90;99.90;;;;;;5137168;27;20050;-74
2023/09/10 12:08:38;;;;;;;15.03;8.33;;;27.00;99.90;;;;;;5104637;27;20047;-74
2023/09/10 12:11:08;;;;;;;13.93;8.03;;;27.10;99.90;;;;;;5138088;27;20486;-77
2023/09/10 12:13:36;;;;;;;12.27;8.43;;;27.10;99.90;;;;;;5156186;27;20046;-76
2023/09/10 12:16:03;;;;;;;19.13;7.53;;;27.10;99.90;;;;;;5155304;27;20046;-77
2023/09/10 12:18:29;;;;;;;15.13;7.90;;;27.00;99.90;;;;;;5156317;27;20135;-76
2023/09/10 12:20:57;;;;;;;15.00;8.13;;;27.00;99.90;;;;;;5156186;27;20057;-76
2023/09/10 12:23:23;;;;;;;13.73;7.77;;;27.00;99.90;;;;;;5155962;27;20050;-75
2023/09/10 12:25:56;;;;;;;17.13;7.43;;;27.00;99.90;;;;;;5156273;27;20045;-76
2023/09/10 12:28:22;;;;;;;15.50;8.23;;;27.10;99.90;;;;;;5155597;27;20506;-77
2023/09/10 12:30:49;;;;;;;10.97;7.93;;;27.10;99.90;;;;;;5137916;27;20051;-77
2023/09/10 12:33:15;;;;;;;19.90;7.57;;;27.10;99.90;;;;;;5138637;27;20125;-77